sensor_id;sensor_type;location;lat;lon;timestamp;pressure;altitude;pressure_sealevel;temperature;humidity
30110;BME280;14965;50.660;13.226;2022-08-11T00:00:34;95752.78;;;16.07;58.26
30110;BME280;14965;50.660;13.226;2022-08-11T00:03:06;95756.34;;;16.08;58.29
30110;BME280;14965;50.660;13.226;2022-08-11T00:05:43;95757.91;;;16.09;58.30
30110;BME280;14965;50.660;13.226;2022-08-11T00:08:11;95751.56;;;16.08;58.22
30110;BME280;14965;50.660;13.226;2022-08-11T00:10:52;95752.31;;;16.09;58.28
30110;BME280;14965;50.660;13.226;2022-08-11T00:13:18;95753.56;;;16.08;58.17
30110;BME280;14965;50.660;13.226;2022-08-11T00:15:45;95746.31;;;16.10;58.04
30110;BME280;14965;50.660;13.226;2022-08-11T00:18:12;95746.19;;;16.14;58.28
30110;BME280;14965;50.660;13.226;2022-08-11T00:20:41;95734.72;;;16.12;58.67
30110;BME280;14965;50.660;13.226;2022-08-11T00:23:11;95734.84;;;16.08;58.87
30110;BME280;14965;50.660;13.226;2022-08-11T00:25:41;95735.75;;;16.05;59.00
30110;BME280;14965;50.660;13.226;2022-08-11T00:28:27;95739.63;;;16.08;58.42
30110;BME280;14965;50.660;13.226;2022-08-11T00:30:57;95742.75;;;16.10;58.41
30110;BME280;14965;50.660;13.226;2022-08-11T00:33:33;95742.41;;;16.08;58.71
30110;BME280;14965;50.660;13.226;2022-08-11T00:36:02;95741.34;;;16.05;58.82
30110;BME280;14965;50.660;13.226;2022-08-11T00:38:33;95747.03;;;16.02;59.46
30110;BME280;14965;50.660;13.226;2022-08-11T00:41:13;95749.47;;;16.00;58.74
30110;BME280;14965;50.660;13.226;2022-08-11T00:44:11;95752.16;;;16.03;58.80
30110;BME280;14965;50.660;13.226;2022-08-11T00:46:55;95759.06;;;15.99;58.90
30110;BME280;14965;50.660;13.226;2022-08-11T00:49:37;95754.88;;;15.94;59.03
30110;BME280;14965;50.660;13.226;2022-08-11T00:52:21;95758.66;;;15.87;59.96
30110;BME280;14965;50.660;13.226;2022-08-11T00:55:54;95757.47;;;15.76;60.40
30110;BME280;14965;50.660;13.226;2022-08-11T00:59:06;95761.19;;;15.60;60.93
30110;BME280;14965;50.660;13.226;2022-08-11T01:01:58;95766.22;;;15.52;60.86
30110;BME280;14965;50.660;13.226;2022-08-11T01:05:13;95766.22;;;15.52;60.47
30110;BME280;14965;50.660;13.226;2022-08-11T01:12:09;95757.13;;;15.39;61.78
30110;BME280;14965;50.660;13.226;2022-08-11T01:15:47;95755.03;;;15.30;61.61
30110;BME280;14965;50.660;13.226;2022-08-11T01:22:20;95751.25;;;15.24;61.50
30110;BME280;14965;50.660;13.226;2022-08-11T01:25:53;95748.91;;;15.23;62.33
30110;BME280;14965;50.660;13.226;2022-08-11T01:29:04;95749.81;;;15.19;62.85
30110;BME280;14965;50.660;13.226;2022-08-11T01:32:35;95752.03;;;15.12;63.75
30110;BME280;14965;50.660;13.226;2022-08-11T01:35:34;95750.59;;;14.94;63.53
30110;BME280;14965;50.660;13.226;2022-08-11T01:39:12;95748.81;;;14.88;63.90
30110;BME280;14965;50.660;13.226;2022-08-11T01:45:26;95751.16;;;14.77;65.02
30110;BME280;14965;50.660;13.226;2022-08-11T01:48:02;95740.38;;;14.66;65.54
30110;BME280;14965;50.660;13.226;2022-08-11T01:50:55;95741.81;;;14.58;65.84
30110;BME280;14965;50.660;13.226;2022-08-11T01:53:33;95745.59;;;14.51;66.33
30110;BME280;14965;50.660;13.226;2022-08-11T01:56:22;95741.75;;;14.45;66.76
30110;BME280;14965;50.660;13.226;2022-08-11T01:58:58;95737.53;;;14.40;67.27
30110;BME280;14965;50.660;13.226;2022-08-11T02:01:44;95739.31;;;14.34;66.87
30110;BME280;14965;50.660;13.226;2022-08-11T02:04:25;95734.97;;;14.33;67.11
30110;BME280;14965;50.660;13.226;2022-08-11T02:07:07;95738.53;;;14.34;66.77
30110;BME280;14965;50.660;13.226;2022-08-11T02:09:49;95737.31;;;14.35;66.03
30110;BME280;14965;50.660;13.226;2022-08-11T02:12:35;95736.84;;;14.36;66.78
30110;BME280;14965;50.660;13.226;2022-08-11T02:15:13;95732.53;;;14.35;66.93
30110;BME280;14965;50.660;13.226;2022-08-11T02:17:55;95735.84;;;14.30;67.24
30110;BME280;14965;50.660;13.226;2022-08-11T02:20:27;95725.28;;;14.25;67.47
30110;BME280;14965;50.660;13.226;2022-08-11T02:23:03;95729.72;;;14.23;67.04
30110;BME280;14965;50.660;13.226;2022-08-11T02:25:39;95722.28;;;14.19;66.76
30110;BME280;14965;50.660;13.226;2022-08-11T02:28:22;95725.63;;;14.27;66.29
30110;BME280;14965;50.660;13.226;2022-08-11T02:31:01;95725.94;;;14.29;66.42
30110;BME280;14965;50.660;13.226;2022-08-11T02:33:32;95727.16;;;14.28;66.52
30110;BME280;14965;50.660;13.226;2022-08-11T02:36:12;95723.97;;;14.30;66.89
30110;BME280;14965;50.660;13.226;2022-08-11T02:38:50;95727.63;;;14.27;67.48
30110;BME280;14965;50.660;13.226;2022-08-11T02:41:25;95727.50;;;14.17;67.47
30110;BME280;14965;50.660;13.226;2022-08-11T02:44:19;95726.94;;;14.10;67.30
30110;BME280;14965;50.660;13.226;2022-08-11T02:47:02;95731.91;;;14.02;68.37
30110;BME280;14965;50.660;13.226;2022-08-11T02:49:44;95727.75;;;13.94;68.64
30110;BME280;14965;50.660;13.226;2022-08-11T02:52:24;95725.53;;;13.89;68.42
30110;BME280;14965;50.660;13.226;2022-08-11T02:55:16;95725.84;;;13.91;68.89
30110;BME280;14965;50.660;13.226;2022-08-11T02:57:52;95732.31;;;13.88;69.03
30110;BME280;14965;50.660;13.226;2022-08-11T03:00:20;95732.31;;;13.88;68.87
30110;BME280;14965;50.660;13.226;2022-08-11T03:03:00;95727.53;;;13.88;69.05
30110;BME280;14965;50.660;13.226;2022-08-11T03:05:57;95730.41;;;13.85;69.25
30110;BME280;14965;50.660;13.226;2022-08-11T03:08:44;95731.28;;;13.82;69.32
30110;BME280;14965;50.660;13.226;2022-08-11T03:11:20;95741.69;;;13.78;69.47
30110;BME280;14965;50.660;13.226;2022-08-11T03:14:07;95737.56;;;13.69;69.45
30110;BME280;14965;50.660;13.226;2022-08-11T03:16:44;95737.03;;;13.58;69.81
30110;BME280;14965;50.660;13.226;2022-08-11T03:19:21;95741.13;;;13.54;69.79
30110;BME280;14965;50.660;13.226;2022-08-11T03:22:01;95741.13;;;13.54;70.16
30110;BME280;14965;50.660;13.226;2022-08-11T03:24:39;95749.81;;;13.56;70.04
30110;BME280;14965;50.660;13.226;2022-08-11T03:27:25;95739.59;;;13.53;70.26
30110;BME280;14965;50.660;13.226;2022-08-11T03:30:05;95735.59;;;13.54;70.51
30110;BME280;14965;50.660;13.226;2022-08-11T03:32:53;95738.38;;;13.54;70.36
30110;BME280;14965;50.660;13.226;2022-08-11T03:35:23;95741.59;;;13.52;70.09
30110;BME280;14965;50.660;13.226;2022-08-11T03:37:59;95741.59;;;13.52;70.42
30110;BME280;14965;50.660;13.226;2022-08-11T03:40:51;95745.59;;;13.51;70.27
30110;BME280;14965;50.660;13.226;2022-08-11T03:43:52;95735.78;;;13.47;70.38
30110;BME280;14965;50.660;13.226;2022-08-11T03:46:35;95746.53;;;13.44;71.05
30110;BME280;14965;50.660;13.226;2022-08-11T03:49:20;95733.53;;;13.41;71.20
30110;BME280;14965;50.660;13.226;2022-08-11T03:51:54;95732.41;;;13.39;71.23
30110;BME280;14965;50.660;13.226;2022-08-11T03:54:34;95739.19;;;13.38;71.05
30110;BME280;14965;50.660;13.226;2022-08-11T03:57:41;95743.94;;;13.37;71.13
30110;BME280;14965;50.660;13.226;2022-08-11T04:00:58;95749.16;;;13.35;71.12
30110;BME280;14965;50.660;13.226;2022-08-11T04:03:57;95745.50;;;13.38;71.48
30110;BME280;14965;50.660;13.226;2022-08-11T04:07:00;95741.06;;;13.41;71.63
30110;BME280;14965;50.660;13.226;2022-08-11T04:10:27;95739.00;;;13.45;71.60
30110;BME280;14965;50.660;13.226;2022-08-11T04:16:38;95740.44;;;13.50;71.13
30110;BME280;14965;50.660;13.226;2022-08-11T04:22:53;95735.59;;;13.54;70.85
30110;BME280;14965;50.660;13.226;2022-08-11T04:26:05;95733.06;;;13.59;71.15
30110;BME280;14965;50.660;13.226;2022-08-11T04:29:03;95734.97;;;13.62;70.92
30110;BME280;14965;50.660;13.226;2022-08-11T04:31:59;95733.66;;;13.67;71.00
30110;BME280;14965;50.660;13.226;2022-08-11T04:34:49;95731.47;;;13.75;71.09
30110;BME280;14965;50.660;13.226;2022-08-11T04:37:46;95734.19;;;13.91;70.89
30110;BME280;14965;50.660;13.226;2022-08-11T04:40:48;95726.25;;;14.86;69.38
30110;BME280;14965;50.660;13.226;2022-08-11T04:44:16;95715.97;;;16.97;62.10
30110;BME280;14965;50.660;13.226;2022-08-11T04:47:13;95710.16;;;19.02;54.06
30110;BME280;14965;50.660;13.226;2022-08-11T04:49:59;95718.56;;;20.67;49.50
30110;BME280;14965;50.660;13.226;2022-08-11T04:53:13;95711.50;;;22.18;45.10
30110;BME280;14965;50.660;13.226;2022-08-11T04:56:05;95702.94;;;23.16;42.67
30110;BME280;14965;50.660;13.226;2022-08-11T04:58:54;95714.44;;;24.15;41.12
30110;BME280;14965;50.660;13.226;2022-08-11T05:01:31;95711.25;;;24.95;39.13
30110;BME280;14965;50.660;13.226;2022-08-11T05:04:40;95711.16;;;25.74;37.51
30110;BME280;14965;50.660;13.226;2022-08-11T05:07:56;95715.00;;;26.40;35.43
30110;BME280;14965;50.660;13.226;2022-08-11T05:10:50;95720.50;;;26.74;34.92
30110;BME280;14965;50.660;13.226;2022-08-11T05:13:28;95721.28;;;27.04;34.92
30110;BME280;14965;50.660;13.226;2022-08-11T05:16:01;95721.03;;;27.38;33.96
30110;BME280;14965;50.660;13.226;2022-08-11T05:18:33;95719.50;;;27.86;33.31
30110;BME280;14965;50.660;13.226;2022-08-11T05:21:07;95717.22;;;28.47;32.11
30110;BME280;14965;50.660;13.226;2022-08-11T05:23:40;95711.03;;;28.99;31.22
30110;BME280;14965;50.660;13.226;2022-08-11T05:26:13;95713.22;;;29.39;30.56
30110;BME280;14965;50.660;13.226;2022-08-11T05:28:52;95714.28;;;29.81;29.75
30110;BME280;14965;50.660;13.226;2022-08-11T05:31:24;95724.25;;;30.27;29.84
30110;BME280;14965;50.660;13.226;2022-08-11T05:33:55;95703.75;;;30.63;29.88
30110;BME280;14965;50.660;13.226;2022-08-11T05:36:34;95709.88;;;31.01;28.53
30110;BME280;14965;50.660;13.226;2022-08-11T05:39:15;95718.25;;;31.20;28.21
30110;BME280;14965;50.660;13.226;2022-08-11T05:41:42;95712.97;;;31.24;28.47
30110;BME280;14965;50.660;13.226;2022-08-11T05:44:17;95708.78;;;31.46;27.99
30110;BME280;14965;50.660;13.226;2022-08-11T05:46:44;95717.94;;;31.73;27.35
30110;BME280;14965;50.660;13.226;2022-08-11T05:49:10;95714.34;;;32.02;27.19
30110;BME280;14965;50.660;13.226;2022-08-11T05:51:42;95720.34;;;32.19;26.68
30110;BME280;14965;50.660;13.226;2022-08-11T05:54:08;95715.88;;;32.39;26.35
30110;BME280;14965;50.660;13.226;2022-08-11T05:56:43;95716.75;;;32.62;25.60
30110;BME280;14965;50.660;13.226;2022-08-11T05:59:13;95720.97;;;32.77;25.96
30110;BME280;14965;50.660;13.226;2022-08-11T06:01:42;95716.22;;;32.79;26.05
30110;BME280;14965;50.660;13.226;2022-08-11T06:04:17;95717.72;;;32.65;25.22
30110;BME280;14965;50.660;13.226;2022-08-11T06:06:52;95720.13;;;32.45;25.83
30110;BME280;14965;50.660;13.226;2022-08-11T06:09:23;95728.81;;;32.32;26.40
30110;BME280;14965;50.660;13.226;2022-08-11T06:11:51;95727.59;;;32.20;26.32
30110;BME280;14965;50.660;13.226;2022-08-11T06:14:21;95734.75;;;32.06;27.17
30110;BME280;14965;50.660;13.226;2022-08-11T06:16:49;95733.53;;;31.93;26.73
30110;BME280;14965;50.660;13.226;2022-08-11T06:19:21;95731.66;;;31.75;26.78
30110;BME280;14965;50.660;13.226;2022-08-11T06:21:49;95732.69;;;31.36;27.27
30110;BME280;14965;50.660;13.226;2022-08-11T06:24:15;95729.59;;;31.13;27.98
30110;BME280;14965;50.660;13.226;2022-08-11T06:26:49;95729.00;;;30.93;28.29
30110;BME280;14965;50.660;13.226;2022-08-11T06:29:16;95729.50;;;30.71;28.24
30110;BME280;14965;50.660;13.226;2022-08-11T06:31:50;95728.94;;;30.12;29.05
30110;BME280;14965;50.660;13.226;2022-08-11T06:34:36;95728.97;;;28.57;31.47
30110;BME280;14965;50.660;13.226;2022-08-11T06:37:17;95736.47;;;27.07;34.10
30110;BME280;14965;50.660;13.226;2022-08-11T06:39:56;95744.59;;;25.92;35.96
30110;BME280;14965;50.660;13.226;2022-08-11T06:42:41;95736.16;;;25.08;37.58
30110;BME280;14965;50.660;13.226;2022-08-11T06:45:23;95736.88;;;24.41;39.15
30110;BME280;14965;50.660;13.226;2022-08-11T06:47:53;95743.91;;;23.97;40.21
30110;BME280;14965;50.660;13.226;2022-08-11T06:50:21;95744.13;;;23.51;41.13
30110;BME280;14965;50.660;13.226;2022-08-11T06:52:52;95743.16;;;23.17;42.26
30110;BME280;14965;50.660;13.226;2022-08-11T06:55:26;95742.06;;;23.08;42.21
30110;BME280;14965;50.660;13.226;2022-08-11T06:57:54;95738.63;;;22.99;42.89
30110;BME280;14965;50.660;13.226;2022-08-11T07:00:21;95741.56;;;22.84;42.69
30110;BME280;14965;50.660;13.226;2022-08-11T07:02:52;95745.13;;;22.79;42.24
30110;BME280;14965;50.660;13.226;2022-08-11T07:05:25;95736.19;;;22.86;42.20
30110;BME280;14965;50.660;13.226;2022-08-11T07:08:31;95737.69;;;22.81;39.48
30110;BME280;14965;50.660;13.226;2022-08-11T07:11:26;95746.66;;;22.80;40.25
30110;BME280;14965;50.660;13.226;2022-08-11T07:14:01;95744.91;;;22.82;40.86
30110;BME280;14965;50.660;13.226;2022-08-11T07:16:30;95740.13;;;22.94;38.61
30110;BME280;14965;50.660;13.226;2022-08-11T07:19:02;95734.06;;;23.01;36.65
30110;BME280;14965;50.660;13.226;2022-08-11T07:21:33;95740.59;;;23.19;38.12
30110;BME280;14965;50.660;13.226;2022-08-11T07:24:03;95737.13;;;23.35;35.54
30110;BME280;14965;50.660;13.226;2022-08-11T07:26:33;95744.41;;;23.16;36.33
30110;BME280;14965;50.660;13.226;2022-08-11T07:29:02;95739.94;;;23.35;36.61
30110;BME280;14965;50.660;13.226;2022-08-11T07:31:33;95741.69;;;23.32;35.81
30110;BME280;14965;50.660;13.226;2022-08-11T07:34:12;95740.38;;;23.28;36.11
30110;BME280;14965;50.660;13.226;2022-08-11T07:36:48;95739.41;;;23.31;36.26
30110;BME280;14965;50.660;13.226;2022-08-11T07:39:20;95740.50;;;23.45;37.07
30110;BME280;14965;50.660;13.226;2022-08-11T07:41:48;95742.78;;;23.78;35.30
30110;BME280;14965;50.660;13.226;2022-08-11T07:44:15;95732.84;;;23.94;35.37
30110;BME280;14965;50.660;13.226;2022-08-11T07:46:47;95732.38;;;24.06;35.24
30110;BME280;14965;50.660;13.226;2022-08-11T07:49:14;95731.78;;;24.62;34.79
30110;BME280;14965;50.660;13.226;2022-08-11T07:51:44;95730.56;;;25.14;33.92
30110;BME280;14965;50.660;13.226;2022-08-11T07:54:10;95731.56;;;24.99;33.26
30110;BME280;14965;50.660;13.226;2022-08-11T07:56:38;95731.56;;;24.94;33.75
30110;BME280;14965;50.660;13.226;2022-08-11T07:59:05;95736.97;;;25.37;33.19
30110;BME280;14965;50.660;13.226;2022-08-11T08:01:32;95734.06;;;25.76;32.75
30110;BME280;14965;50.660;13.226;2022-08-11T08:03:58;95721.47;;;25.66;32.13
30110;BME280;14965;50.660;13.226;2022-08-11T08:06:26;95733.88;;;24.95;33.77
30110;BME280;14965;50.660;13.226;2022-08-11T08:08:55;95730.22;;;24.44;34.13
30110;BME280;14965;50.660;13.226;2022-08-11T08:11:23;95727.00;;;23.54;35.42
30110;BME280;14965;50.660;13.226;2022-08-11T08:13:52;95734.78;;;22.96;36.38
30110;BME280;14965;50.660;13.226;2022-08-11T08:16:19;95731.50;;;22.77;38.06
30110;BME280;14965;50.660;13.226;2022-08-11T08:18:46;95733.78;;;22.73;38.57
30110;BME280;14965;50.660;13.226;2022-08-11T08:21:12;95730.66;;;22.40;38.64
30110;BME280;14965;50.660;13.226;2022-08-11T08:23:41;95734.72;;;22.12;38.07
30110;BME280;14965;50.660;13.226;2022-08-11T08:26:10;95733.94;;;21.92;38.66
30110;BME280;14965;50.660;13.226;2022-08-11T08:28:38;95727.59;;;21.76;38.64
30110;BME280;14965;50.660;13.226;2022-08-11T08:31:05;95727.59;;;22.17;38.42
30110;BME280;14965;50.660;13.226;2022-08-11T08:33:32;95721.38;;;22.33;38.26
30110;BME280;14965;50.660;13.226;2022-08-11T08:36:02;95722.81;;;22.23;38.30
30110;BME280;14965;50.660;13.226;2022-08-11T08:38:29;95721.25;;;22.22;36.76
30110;BME280;14965;50.660;13.226;2022-08-11T08:40:55;95718.44;;;22.48;36.69
30110;BME280;14965;50.660;13.226;2022-08-11T08:43:23;95722.66;;;22.58;36.35
30110;BME280;14965;50.660;13.226;2022-08-11T08:45:54;95719.28;;;22.28;37.10
30110;BME280;14965;50.660;13.226;2022-08-11T08:48:24;95715.16;;;22.03;37.00
30110;BME280;14965;50.660;13.226;2022-08-11T08:50:58;95717.53;;;21.90;37.68
30110;BME280;14965;50.660;13.226;2022-08-11T08:53:29;95716.34;;;21.76;37.46
30110;BME280;14965;50.660;13.226;2022-08-11T08:56:00;95723.19;;;21.70;37.53
30110;BME280;14965;50.660;13.226;2022-08-11T08:58:28;95727.19;;;21.63;37.81
30110;BME280;14965;50.660;13.226;2022-08-11T09:00:56;95720.69;;;21.77;38.21
30110;BME280;14965;50.660;13.226;2022-08-11T09:03:24;95718.66;;;21.98;37.89
30110;BME280;14965;50.660;13.226;2022-08-11T09:05:53;95716.97;;;21.86;37.70
30110;BME280;14965;50.660;13.226;2022-08-11T09:08:21;95718.34;;;21.70;37.77
30110;BME280;14965;50.660;13.226;2022-08-11T09:10:49;95720.28;;;21.64;37.79
30110;BME280;14965;50.660;13.226;2022-08-11T09:13:15;95712.41;;;21.88;36.75
30110;BME280;14965;50.660;13.226;2022-08-11T09:15:41;95709.75;;;22.00;36.48
30110;BME280;14965;50.660;13.226;2022-08-11T09:18:11;95711.09;;;21.84;37.50
30110;BME280;14965;50.660;13.226;2022-08-11T09:20:38;95710.72;;;21.97;36.87
30110;BME280;14965;50.660;13.226;2022-08-11T09:23:07;95696.63;;;22.37;35.93
30110;BME280;14965;50.660;13.226;2022-08-11T09:25:34;95695.41;;;22.76;35.54
30110;BME280;14965;50.660;13.226;2022-08-11T09:28:01;95706.56;;;22.91;34.90
30110;BME280;14965;50.660;13.226;2022-08-11T09:30:28;95703.75;;;23.28;35.36
30110;BME280;14965;50.660;13.226;2022-08-11T09:32:56;95700.44;;;23.67;33.96
30110;BME280;14965;50.660;13.226;2022-08-11T09:35:25;95694.41;;;24.07;34.15
30110;BME280;14965;50.660;13.226;2022-08-11T09:37:54;95699.56;;;24.09;33.64
30110;BME280;14965;50.660;13.226;2022-08-11T09:40:21;95697.56;;;24.21;34.00
30110;BME280;14965;50.660;13.226;2022-08-11T09:42:48;95692.75;;;24.38;32.72
30110;BME280;14965;50.660;13.226;2022-08-11T09:45:16;95688.13;;;24.46;33.69
30110;BME280;14965;50.660;13.226;2022-08-11T09:47:44;95684.28;;;24.55;33.49
30110;BME280;14965;50.660;13.226;2022-08-11T09:50:14;95682.59;;;24.03;33.62
30110;BME280;14965;50.660;13.226;2022-08-11T09:52:43;95669.53;;;24.00;34.40
30110;BME280;14965;50.660;13.226;2022-08-11T09:55:13;95668.72;;;23.94;34.26
30110;BME280;14965;50.660;13.226;2022-08-11T09:57:45;95676.69;;;23.96;33.58
30110;BME280;14965;50.660;13.226;2022-08-11T10:00:13;95676.72;;;24.07;33.54
30110;BME280;14965;50.660;13.226;2022-08-11T10:02:43;95675.50;;;24.30;32.33
30110;BME280;14965;50.660;13.226;2022-08-11T10:05:14;95684.50;;;24.40;31.63
30110;BME280;14965;50.660;13.226;2022-08-11T10:07:44;95668.53;;;24.15;32.79
30110;BME280;14965;50.660;13.226;2022-08-11T10:10:11;95670.34;;;24.23;31.75
30110;BME280;14965;50.660;13.226;2022-08-11T10:12:47;95667.31;;;24.44;32.47
30110;BME280;14965;50.660;13.226;2022-08-11T10:15:17;95665.28;;;24.44;32.83
30110;BME280;14965;50.660;13.226;2022-08-11T10:17:50;95667.09;;;24.42;31.91
30110;BME280;14965;50.660;13.226;2022-08-11T10:20:19;95663.19;;;24.33;32.14
30110;BME280;14965;50.660;13.226;2022-08-11T10:22:46;95663.59;;;23.93;33.42
30110;BME280;14965;50.660;13.226;2022-08-11T10:25:15;95649.25;;;23.96;33.24
30110;BME280;14965;50.660;13.226;2022-08-11T10:27:42;95652.38;;;24.32;33.42
30110;BME280;14965;50.660;13.226;2022-08-11T10:30:10;95644.44;;;24.25;33.69
30110;BME280;14965;50.660;13.226;2022-08-11T10:32:37;95646.78;;;24.49;34.27
30110;BME280;14965;50.660;13.226;2022-08-11T10:35:05;95670.09;;;24.27;33.71
30110;BME280;14965;50.660;13.226;2022-08-11T10:37:32;95652.28;;;23.81;32.91
30110;BME280;14965;50.660;13.226;2022-08-11T10:39:59;95651.09;;;23.45;34.19
30110;BME280;14965;50.660;13.226;2022-08-11T10:42:27;95640.91;;;23.65;35.66
30110;BME280;14965;50.660;13.226;2022-08-11T10:44:57;95655.19;;;24.04;34.63
30110;BME280;14965;50.660;13.226;2022-08-11T10:47:24;95650.09;;;24.25;33.00
30110;BME280;14965;50.660;13.226;2022-08-11T10:49:52;95642.13;;;24.34;32.91
30110;BME280;14965;50.660;13.226;2022-08-11T10:52:19;95634.69;;;24.31;32.04
30110;BME280;14965;50.660;13.226;2022-08-11T10:54:45;95630.31;;;24.19;33.13
30110;BME280;14965;50.660;13.226;2022-08-11T10:57:14;95624.69;;;24.36;31.55
30110;BME280;14965;50.660;13.226;2022-08-11T10:59:43;95627.53;;;24.47;32.20
30110;BME280;14965;50.660;13.226;2022-08-11T11:02:12;95626.78;;;24.69;32.54
30110;BME280;14965;50.660;13.226;2022-08-11T11:04:57;95624.97;;;24.55;31.43
30110;BME280;14965;50.660;13.226;2022-08-11T11:07:35;95634.97;;;24.33;33.19
30110;BME280;14965;50.660;13.226;2022-08-11T11:10:06;95626.44;;;24.05;33.30
30110;BME280;14965;50.660;13.226;2022-08-11T11:12:37;95634.63;;;23.92;33.64
30110;BME280;14965;50.660;13.226;2022-08-11T11:15:06;95630.75;;;23.84;34.26
30110;BME280;14965;50.660;13.226;2022-08-11T11:17:39;95623.81;;;23.85;33.72
30110;BME280;14965;50.660;13.226;2022-08-11T11:20:08;95630.50;;;23.99;33.82
30110;BME280;14965;50.660;13.226;2022-08-11T11:22:35;95625.44;;;24.08;33.72
30110;BME280;14965;50.660;13.226;2022-08-11T11:25:22;95627.44;;;24.02;33.26
30110;BME280;14965;50.660;13.226;2022-08-11T11:28:31;95617.16;;;23.99;33.92
30110;BME280;14965;50.660;13.226;2022-08-11T11:31:12;95618.75;;;24.17;33.47
30110;BME280;14965;50.660;13.226;2022-08-11T11:34:04;95612.13;;;24.37;33.81
30110;BME280;14965;50.660;13.226;2022-08-11T11:36:44;95616.50;;;24.49;32.93
30110;BME280;14965;50.660;13.226;2022-08-11T11:39:10;95605.69;;;24.25;32.14
30110;BME280;14965;50.660;13.226;2022-08-11T11:41:38;95609.25;;;24.15;33.40
30110;BME280;14965;50.660;13.226;2022-08-11T11:44:05;95607.47;;;24.23;32.72
30110;BME280;14965;50.660;13.226;2022-08-11T11:46:34;95614.41;;;24.16;32.29
30110;BME280;14965;50.660;13.226;2022-08-11T11:49:00;95613.88;;;24.23;32.74
30110;BME280;14965;50.660;13.226;2022-08-11T11:51:27;95620.31;;;24.35;31.53
30110;BME280;14965;50.660;13.226;2022-08-11T11:53:54;95612.13;;;24.37;32.22
30110;BME280;14965;50.660;13.226;2022-08-11T11:56:22;95609.00;;;24.24;32.92
30110;BME280;14965;50.660;13.226;2022-08-11T11:58:49;95606.19;;;24.18;33.14
30110;BME280;14965;50.660;13.226;2022-08-11T12:01:17;95602.88;;;24.25;32.71
30110;BME280;14965;50.660;13.226;2022-08-11T12:03:49;95612.41;;;24.39;31.93
30110;BME280;14965;50.660;13.226;2022-08-11T12:06:21;95602.59;;;24.18;32.23
30110;BME280;14965;50.660;13.226;2022-08-11T12:08:49;95592.81;;;23.96;32.33
30110;BME280;14965;50.660;13.226;2022-08-11T12:11:20;95595.88;;;23.93;32.33
30110;BME280;14965;50.660;13.226;2022-08-11T12:13:49;95595.41;;;24.00;32.92
30110;BME280;14965;50.660;13.226;2022-08-11T12:16:19;95592.81;;;24.02;32.41
30110;BME280;14965;50.660;13.226;2022-08-11T12:18:52;95599.22;;;24.02;33.17
30110;BME280;14965;50.660;13.226;2022-08-11T12:21:19;95585.13;;;24.02;32.64
30110;BME280;14965;50.660;13.226;2022-08-11T12:23:47;95588.97;;;23.99;33.33
30110;BME280;14965;50.660;13.226;2022-08-11T12:26:15;95592.31;;;23.92;32.25
30110;BME280;14965;50.660;13.226;2022-08-11T12:28:43;95580.50;;;23.94;32.94
30110;BME280;14965;50.660;13.226;2022-08-11T12:31:09;95583.59;;;24.07;32.81
30110;BME280;14965;50.660;13.226;2022-08-11T12:33:37;95582.06;;;24.00;32.64
30110;BME280;14965;50.660;13.226;2022-08-11T12:36:08;95575.09;;;23.90;31.49
30110;BME280;14965;50.660;13.226;2022-08-11T12:38:35;95572.78;;;23.89;32.63
30110;BME280;14965;50.660;13.226;2022-08-11T12:41:03;95585.38;;;23.88;32.63
30110;BME280;14965;50.660;13.226;2022-08-11T12:43:31;95568.13;;;23.74;32.59
30110;BME280;14965;50.660;13.226;2022-08-11T12:46:03;95568.66;;;23.73;32.91
30110;BME280;14965;50.660;13.226;2022-08-11T12:48:34;95562.00;;;23.76;32.74
30110;BME280;14965;50.660;13.226;2022-08-11T12:51:06;95564.31;;;23.77;32.85
30110;BME280;14965;50.660;13.226;2022-08-11T12:53:39;95561.75;;;23.79;32.25
30110;BME280;14965;50.660;13.226;2022-08-11T12:56:08;95562.53;;;23.85;32.99
30110;BME280;14965;50.660;13.226;2022-08-11T12:58:39;95559.22;;;23.87;32.31
30110;BME280;14965;50.660;13.226;2022-08-11T13:01:06;95554.84;;;23.86;31.91
30110;BME280;14965;50.660;13.226;2022-08-11T13:03:34;95551.00;;;23.89;31.24
30110;BME280;14965;50.660;13.226;2022-08-11T13:06:03;95558.69;;;23.94;31.99
30110;BME280;14965;50.660;13.226;2022-08-11T13:08:34;95553.81;;;23.95;30.42
30110;BME280;14965;50.660;13.226;2022-08-11T13:11:02;95546.13;;;23.84;30.87
30110;BME280;14965;50.660;13.226;2022-08-11T13:13:29;95537.41;;;23.88;31.09
30110;BME280;14965;50.660;13.226;2022-08-11T13:15:57;95542.81;;;24.02;32.50
30110;BME280;14965;50.660;13.226;2022-08-11T13:18:23;95546.94;;;24.13;31.27
30110;BME280;14965;50.660;13.226;2022-08-11T13:20:52;95541.00;;;24.10;30.56
30110;BME280;14965;50.660;13.226;2022-08-11T13:23:18;95529.22;;;24.18;31.60
30110;BME280;14965;50.660;13.226;2022-08-11T13:25:48;95543.06;;;24.21;31.10
30110;BME280;14965;50.660;13.226;2022-08-11T13:28:17;95540.25;;;24.21;30.64
30110;BME280;14965;50.660;13.226;2022-08-11T13:30:44;95539.19;;;24.07;28.69
30110;BME280;14965;50.660;13.226;2022-08-11T13:33:11;95528.94;;;23.99;29.02
30110;BME280;14965;50.660;13.226;2022-08-11T13:35:38;95525.09;;;24.02;29.07
30110;BME280;14965;50.660;13.226;2022-08-11T13:38:07;95547.16;;;24.15;29.74
30110;BME280;14965;50.660;13.226;2022-08-11T13:40:33;95537.94;;;24.20;29.19
30110;BME280;14965;50.660;13.226;2022-08-11T13:43:01;95536.13;;;24.28;29.32
30110;BME280;14965;50.660;13.226;2022-08-11T13:45:27;95527.19;;;24.13;30.14
30110;BME280;14965;50.660;13.226;2022-08-11T13:47:56;95526.38;;;24.01;28.80
30110;BME280;14965;50.660;13.226;2022-08-11T13:50:24;95525.09;;;24.02;28.80
30110;BME280;14965;50.660;13.226;2022-08-11T13:52:51;95517.91;;;23.95;29.07
30110;BME280;14965;50.660;13.226;2022-08-11T13:55:17;95516.41;;;24.00;30.30